createdAt,value
2023-01-17T00:00:44.627Z,16.30
2023-01-17T00:06:24.167Z,15.70
2023-01-17T00:11:31.356Z,16.60
2023-01-17T00:16:38.548Z,18.80
2023-01-17T00:22:03.493Z,17.40
2023-01-17T00:27:12.279Z,17.50
2023-01-17T00:32:18.280Z,18.50
2023-01-17T00:37:24.299Z,18.90
2023-01-17T00:42:30.353Z,20.90
2023-01-17T00:47:56.900Z,20.70
2023-01-17T00:53:25.324Z,21.50
2023-01-17T00:58:50.161Z,19.80
2023-01-17T01:04:14.931Z,20.60
2023-01-17T01:09:39.689Z,20.00
2023-01-17T01:15:04.306Z,21.00
2023-01-17T01:20:30.545Z,18.50
2023-01-17T01:25:55.947Z,18.80
2023-01-17T01:31:21.873Z,19.50
2023-01-17T01:36:29.086Z,19.50
2023-01-17T01:41:36.393Z,17.40
2023-01-17T01:46:44.276Z,18.70
2023-01-17T01:51:55.619Z,18.80
2023-01-17T01:57:06.399Z,17.20
2023-01-17T02:02:16.960Z,15.30
2023-01-17T02:07:27.978Z,17.60
2023-01-17T02:12:35.936Z,18.10
2023-01-17T02:17:55.805Z,18.50
2023-01-17T02:23:37.470Z,15.50
2023-01-17T02:29:01.662Z,17.70
2023-01-17T02:34:16.272Z,18.00
2023-01-17T02:39:29.684Z,18.20
2023-01-17T02:44:43.106Z,18.80
2023-01-17T02:49:51.370Z,18.70
2023-01-17T02:55:10.923Z,21.40
2023-01-17T03:00:28.035Z,19.50
2023-01-17T03:05:42.399Z,18.80
2023-01-17T03:10:49.559Z,22.10
2023-01-17T03:15:56.686Z,21.20
2023-01-17T03:21:03.888Z,20.60
2023-01-17T03:26:11.759Z,21.50
2023-01-17T03:31:20.126Z,20.70
2023-01-17T03:36:27.325Z,21.80
2023-01-17T03:41:34.411Z,22.80
2023-01-17T03:46:41.609Z,21.40
2023-01-17T03:51:48.716Z,20.70
2023-01-17T03:56:55.762Z,21.80
2023-01-17T04:02:03.089Z,24.90
2023-01-17T04:07:10.361Z,20.50
2023-01-17T04:12:17.845Z,20.30
2023-01-17T04:17:25.000Z,21.10
2023-01-17T04:22:32.579Z,18.20
2023-01-17T04:27:39.705Z,22.90
2023-01-17T04:32:47.036Z,24.30
2023-01-17T04:37:54.204Z,25.50
2023-01-17T04:43:01.543Z,23.50
2023-01-17T04:48:10.344Z,25.00
2023-01-17T04:53:17.601Z,24.90
2023-01-17T04:58:25.141Z,27.70
2023-01-17T05:03:32.503Z,28.60
2023-01-17T05:08:39.706Z,31.40
2023-01-17T05:13:48.743Z,28.80
2023-01-17T05:18:56.427Z,29.20
2023-01-17T05:24:03.538Z,27.40
2023-01-17T05:29:10.833Z,26.80
2023-01-17T05:34:17.960Z,27.70
2023-01-17T05:39:26.564Z,26.70
2023-01-17T05:44:33.758Z,28.60
2023-01-17T05:49:40.787Z,25.40
2023-01-17T05:54:48.151Z,25.60
2023-01-17T05:59:55.317Z,25.90
2023-01-17T06:05:03.547Z,28.10
2023-01-17T06:10:12.893Z,29.60
2023-01-17T06:15:20.701Z,38.50
2023-01-17T06:20:28.794Z,38.50
2023-01-17T06:25:40.719Z,26.60
2023-01-17T06:30:48.423Z,25.10
2023-01-17T06:35:56.107Z,27.00
2023-01-17T06:41:06.877Z,24.80
2023-01-17T06:46:14.010Z,24.40
2023-01-17T06:51:21.208Z,24.20
2023-01-17T06:56:31.197Z,26.20
2023-01-17T07:01:38.453Z,24.10
2023-01-17T07:06:45.814Z,25.40
2023-01-17T07:11:59.703Z,24.60
2023-01-17T07:17:06.904Z,30.70
2023-01-17T07:22:14.238Z,29.30
2023-01-17T07:27:21.360Z,27.30
2023-01-17T07:32:28.886Z,28.10
2023-01-17T07:37:36.067Z,28.60
2023-01-17T07:42:43.228Z,29.10
2023-01-17T07:47:50.854Z,31.50
2023-01-17T07:52:57.992Z,28.10
2023-01-17T07:58:05.191Z,28.20
2023-01-17T08:03:16.078Z,31.30
2023-01-17T08:08:23.505Z,26.60
2023-01-17T08:13:30.938Z,26.40
2023-01-17T08:18:38.485Z,27.20
2023-01-17T08:23:50.545Z,26.50
2023-01-17T08:29:02.215Z,23.40
2023-01-17T08:34:09.509Z,25.40
2023-01-17T08:39:16.977Z,24.30
2023-01-17T08:44:24.803Z,26.30
2023-01-17T08:49:31.991Z,23.80
2023-01-17T08:54:39.370Z,24.70
2023-01-17T08:59:46.931Z,24.20
2023-01-17T09:04:54.369Z,23.10
2023-01-17T09:10:01.567Z,21.40
2023-01-17T09:15:10.463Z,20.10
2023-01-17T09:20:18.087Z,19.20
2023-01-17T09:25:25.285Z,18.60
2023-01-17T09:30:32.528Z,18.70
2023-01-17T09:35:39.683Z,18.00
2023-01-17T09:40:49.344Z,16.80
2023-01-17T09:45:56.670Z,16.90
2023-01-17T09:51:09.758Z,15.90
2023-01-17T09:56:21.098Z,16.10
2023-01-17T10:01:37.805Z,15.00
2023-01-17T10:06:58.365Z,15.10
2023-01-17T10:12:27.022Z,14.90
2023-01-17T10:17:45.018Z,13.20
2023-01-17T10:23:12.706Z,12.40
2023-01-17T10:28:24.783Z,12.10
2023-01-17T10:33:37.367Z,12.20
2023-01-17T10:38:48.603Z,10.90
2023-01-17T10:44:06.016Z,10.30
2023-01-17T10:49:19.308Z,9.50
2023-01-17T10:54:43.999Z,9.80
2023-01-17T10:59:51.322Z,9.50
2023-01-17T11:05:04.443Z,10.00
2023-01-17T11:10:38.113Z,8.90
2023-01-17T11:15:53.265Z,9.10
2023-01-17T11:21:14.235Z,10.70
2023-01-17T11:26:28.970Z,8.90
2023-01-17T11:31:37.267Z,7.70
2023-01-17T11:36:44.832Z,8.40
2023-01-17T11:41:53.510Z,7.10
2023-01-17T11:47:20.100Z,7.30
2023-01-17T11:52:34.475Z,7.80
2023-01-17T11:57:41.891Z,5.20
2023-01-17T12:03:14.094Z,5.60
2023-01-17T12:08:33.640Z,5.10
2023-01-17T12:14:03.459Z,4.70
2023-01-17T12:19:32.441Z,4.60
2023-01-17T12:25:00.102Z,4.70
2023-01-17T12:30:35.595Z,4.40
2023-01-17T12:35:50.846Z,6.00
2023-01-17T12:41:02.988Z,5.20
2023-01-17T12:46:21.037Z,4.80
2023-01-17T12:56:42.533Z,3.90
2023-01-17T13:01:57.978Z,4.40
2023-01-17T13:07:14.690Z,5.00
2023-01-17T13:12:23.917Z,4.20
2023-01-17T13:17:40.405Z,3.80
2023-01-17T13:22:48.808Z,3.50
2023-01-17T13:28:10.849Z,3.90
2023-01-17T13:33:29.836Z,3.30
2023-01-17T13:39:04.859Z,4.60
2023-01-17T13:44:23.094Z,3.20
2023-01-17T13:54:49.712Z,3.30
2023-01-17T13:59:58.345Z,2.10
2023-01-17T14:05:15.409Z,2.30
2023-01-17T14:10:38.454Z,2.40
2023-01-17T14:15:53.326Z,2.70
2023-01-17T14:21:21.820Z,2.60
2023-01-17T14:32:03.650Z,5.30
2023-01-17T14:37:19.752Z,6.20
2023-01-17T14:42:29.687Z,5.50
2023-01-17T14:47:39.498Z,6.60
2023-01-17T14:52:46.915Z,6.10
2023-01-17T14:57:57.983Z,5.80
2023-01-17T15:03:07.265Z,4.10
2023-01-17T15:08:18.422Z,5.20
2023-01-17T15:13:44.385Z,4.80
2023-01-17T15:18:53.193Z,6.00
2023-01-17T15:24:03.557Z,5.10
2023-01-17T15:29:19.896Z,4.70
2023-01-17T15:34:34.061Z,5.40
2023-01-17T15:39:43.180Z,4.80
2023-01-17T15:44:55.553Z,5.20
2023-01-17T15:50:18.071Z,5.00
2023-01-17T15:55:48.100Z,4.80
2023-01-17T16:00:56.100Z,6.40
2023-01-17T16:06:38.334Z,5.40
2023-01-17T16:12:28.899Z,6.10
2023-01-17T16:17:40.332Z,4.40
2023-01-17T16:23:52.251Z,5.20
2023-01-17T16:29:04.871Z,5.40
2023-01-17T16:34:14.245Z,5.70
2023-01-17T16:39:21.688Z,5.90
2023-01-17T16:44:29.683Z,7.20
2023-01-17T16:49:37.778Z,7.00
2023-01-17T16:54:44.874Z,8.30
2023-01-17T16:59:53.278Z,7.00
2023-01-17T17:05:00.676Z,6.70
2023-01-17T17:10:09.125Z,6.40
2023-01-17T17:15:16.705Z,5.90
2023-01-17T17:20:26.686Z,5.10
2023-01-17T17:25:37.202Z,5.30
2023-01-17T17:30:44.926Z,4.80
2023-01-17T17:35:52.022Z,4.80
2023-01-17T17:41:04.607Z,5.40
2023-01-17T17:46:13.027Z,5.40
2023-01-17T17:51:28.496Z,4.90
2023-01-17T17:56:36.986Z,4.50
2023-01-17T18:01:44.358Z,5.10
2023-01-17T18:06:51.714Z,5.10
2023-01-17T18:12:01.209Z,5.80
2023-01-17T18:17:08.451Z,5.70
2023-01-17T18:22:15.551Z,6.90
2023-01-17T18:27:22.711Z,8.30
2023-01-17T18:32:30.105Z,7.90
2023-01-17T18:37:37.423Z,8.70
2023-01-17T18:42:44.535Z,8.20
2023-01-17T18:47:51.958Z,8.60
2023-01-17T18:52:59.444Z,8.20
2023-01-17T18:58:06.959Z,7.10
2023-01-17T19:03:14.135Z,7.40
2023-01-17T19:08:21.269Z,7.70
2023-01-17T19:13:28.543Z,8.20
2023-01-17T19:18:36.366Z,8.30
2023-01-17T19:23:44.603Z,11.40
2023-01-17T19:28:51.999Z,9.10
2023-01-17T19:34:01.203Z,9.60
2023-01-17T19:39:10.640Z,10.40
2023-01-17T19:44:17.832Z,9.70
2023-01-17T19:49:25.125Z,10.60
2023-01-17T19:54:32.338Z,16.30
2023-01-17T19:59:39.582Z,10.60
2023-01-17T20:04:47.270Z,12.20
2023-01-17T20:09:54.655Z,18.80
2023-01-17T20:15:01.804Z,20.60
2023-01-17T20:20:12.983Z,16.10
2023-01-17T20:25:20.451Z,24.70
2023-01-17T20:30:30.643Z,20.10
2023-01-17T20:35:37.769Z,20.40
2023-01-17T20:40:44.905Z,21.00
2023-01-17T20:45:58.397Z,25.00
2023-01-17T20:51:11.339Z,27.90
2023-01-17T20:56:19.090Z,32.50
2023-01-17T21:01:26.594Z,25.50
2023-01-17T21:06:33.864Z,28.60
2023-01-17T21:11:41.323Z,36.90
2023-01-17T21:16:50.475Z,25.00
2023-01-17T21:21:57.792Z,17.20
2023-01-17T21:27:04.983Z,29.80
2023-01-17T21:32:12.162Z,42.10
2023-01-17T21:37:19.412Z,22.50
2023-01-17T21:42:26.573Z,21.50
2023-01-17T21:47:33.811Z,23.40
2023-01-17T21:52:41.104Z,38.50
2023-01-17T21:58:05.815Z,37.10
2023-01-17T22:03:13.000Z,17.40
2023-01-17T22:08:20.685Z,16.50
2023-01-17T22:13:31.562Z,16.60
2023-01-17T22:18:41.045Z,17.70
2023-01-17T22:23:51.820Z,20.90
2023-01-17T22:29:00.887Z,21.10
2023-01-17T22:34:08.123Z,36.80
2023-01-17T22:39:15.539Z,35.20
2023-01-17T22:44:22.698Z,27.40
2023-01-17T22:49:30.101Z,29.80
2023-01-17T22:54:37.211Z,21.40
2023-01-17T22:59:44.354Z,45.00
2023-01-17T23:04:51.463Z,61.30
2023-01-17T23:09:58.813Z,41.90
2023-01-17T23:15:24.266Z,34.60
2023-01-17T23:20:31.358Z,24.60
2023-01-17T23:25:38.399Z,18.70
2023-01-17T23:30:47.907Z,20.30
2023-01-17T23:35:56.296Z,24.40
2023-01-17T23:41:22.694Z,24.60
2023-01-17T23:46:30.483Z,28.00
2023-01-17T23:56:43.613Z,22.70
